createdAt,value
2023-03-31T00:00:53.067Z,14.53
2023-03-31T00:03:24.492Z,15.23
2023-03-31T00:05:59.386Z,15.57
2023-03-31T00:08:35.973Z,16.77
2023-03-31T00:11:05.662Z,16.10
2023-03-31T00:13:32.632Z,16.47
2023-03-31T00:16:06.335Z,10.77
2023-03-31T00:18:34.720Z,14.50
2023-03-31T00:21:14.817Z,16.77
2023-03-31T00:23:42.285Z,16.63
2023-03-31T00:26:09.345Z,15.77
2023-03-31T00:28:49.516Z,13.30
2023-03-31T00:31:30.671Z,12.90
2023-03-31T00:34:04.119Z,13.93
2023-03-31T00:36:31.366Z,11.47
2023-03-31T00:39:00.412Z,10.73
2023-03-31T00:41:29.725Z,10.50
2023-03-31T00:44:02.614Z,10.73
2023-03-31T00:46:52.654Z,10.23
2023-03-31T00:49:30.651Z,9.77
2023-03-31T00:52:02.817Z,10.70
2023-03-31T00:54:33.803Z,11.77
2023-03-31T00:57:03.791Z,10.87
2023-03-31T00:59:35.372Z,11.13
2023-03-31T01:02:04.862Z,9.43
2023-03-31T01:07:27.962Z,9.90
2023-03-31T01:09:59.466Z,8.43
2023-03-31T01:12:27.610Z,9.90
2023-03-31T01:14:56.146Z,12.13
2023-03-31T01:17:24.522Z,11.60
2023-03-31T01:20:26.143Z,9.10
2023-03-31T01:23:14.306Z,9.03
2023-03-31T01:25:44.418Z,9.02
2023-03-31T01:28:36.814Z,9.93
2023-03-31T01:31:38.687Z,7.80
2023-03-31T01:34:09.280Z,8.70
2023-03-31T01:37:15.016Z,8.67
2023-03-31T01:40:00.828Z,7.33
2023-03-31T01:42:33.749Z,8.33
2023-03-31T01:45:16.996Z,8.53
2023-03-31T01:47:58.322Z,8.17
2023-03-31T01:50:41.484Z,7.20
2023-03-31T01:53:36.529Z,7.97
2023-03-31T01:56:10.906Z,8.23
2023-03-31T01:58:42.206Z,7.80
2023-03-31T02:01:18.503Z,7.07
2023-03-31T02:03:56.722Z,11.03
2023-03-31T02:06:29.481Z,7.13
2023-03-31T02:09:04.793Z,7.63
2023-03-31T02:11:38.485Z,8.57
2023-03-31T02:14:11.315Z,9.00
2023-03-31T02:16:48.157Z,8.23
2023-03-31T02:19:19.088Z,7.10
2023-03-31T02:21:51.371Z,8.20
2023-03-31T02:24:20.826Z,7.60
2023-03-31T02:27:25.621Z,7.00
2023-03-31T02:29:53.238Z,7.07
2023-03-31T02:32:32.496Z,4.67
2023-03-31T02:37:29.488Z,2.17
2023-03-31T02:39:59.576Z,0.77
2023-03-31T02:42:26.666Z,0.67
2023-03-31T02:44:53.878Z,0.90
2023-03-31T02:47:22.537Z,0.60
2023-03-31T02:49:54.740Z,0.77
2023-03-31T02:52:54.765Z,0.70
2023-03-31T02:55:43.927Z,0.73
2023-03-31T02:58:52.982Z,0.50
2023-03-31T03:01:22.989Z,0.60
2023-03-31T03:04:05.507Z,0.50
2023-03-31T03:07:03.156Z,0.87
2023-03-31T03:09:52.015Z,0.50
2023-03-31T03:12:56.487Z,0.90
2023-03-31T03:15:56.183Z,0.70
2023-03-31T03:18:23.238Z,0.67
2023-03-31T03:20:51.233Z,0.70
2023-03-31T03:23:18.978Z,0.70
2023-03-31T03:25:47.143Z,0.97
2023-03-31T03:28:14.237Z,0.70
2023-03-31T03:30:41.620Z,1.03
2023-03-31T03:33:08.724Z,1.03
2023-03-31T03:35:36.847Z,1.30
2023-03-31T03:38:03.892Z,1.70
2023-03-31T03:40:31.032Z,1.50
2023-03-31T03:42:58.056Z,1.73
2023-03-31T03:45:25.036Z,1.43
2023-03-31T03:47:52.374Z,1.20
2023-03-31T03:50:19.450Z,1.87
2023-03-31T03:52:46.490Z,0.77
2023-03-31T03:55:14.097Z,0.90
2023-03-31T03:57:41.076Z,1.23
2023-03-31T04:00:12.796Z,1.57
2023-03-31T04:02:40.551Z,0.90
2023-03-31T04:05:08.240Z,1.60
2023-03-31T04:07:36.281Z,1.83
2023-03-31T04:10:03.306Z,1.57
2023-03-31T04:12:30.450Z,2.13
2023-03-31T04:14:57.529Z,2.80
2023-03-31T05:09:40.151Z,3.40
2023-03-31T05:12:07.305Z,1.67
2023-03-31T05:14:34.234Z,0.73
2023-03-31T05:17:01.497Z,0.83
2023-03-31T05:19:28.681Z,0.50
2023-03-31T05:21:55.716Z,0.57
2023-03-31T05:24:22.721Z,0.50
2023-03-31T05:26:53.122Z,0.50
2023-03-31T05:29:20.902Z,0.50
2023-03-31T05:31:48.641Z,0.77
2023-03-31T05:34:16.304Z,0.60
2023-03-31T05:36:48.217Z,0.30
2023-03-31T05:39:15.204Z,0.88
2023-03-31T05:41:42.094Z,1.63
2023-03-31T05:44:09.102Z,2.27
2023-03-31T05:46:36.058Z,1.63
2023-03-31T05:49:03.271Z,0.57
2023-03-31T05:51:30.486Z,0.82
2023-03-31T05:53:57.566Z,0.73
2023-03-31T05:56:24.822Z,0.95
2023-03-31T05:58:52.659Z,0.68
2023-03-31T06:01:23.826Z,0.60
2023-03-31T06:03:51.691Z,0.70
2023-03-31T06:06:18.820Z,0.47
2023-03-31T06:08:47.396Z,0.60
2023-03-31T06:11:17.046Z,0.52
2023-03-31T06:13:44.403Z,0.75
2023-03-31T06:16:13.949Z,0.43
2023-03-31T06:18:41.624Z,1.27
2023-03-31T06:21:10.760Z,0.43
2023-03-31T06:23:37.708Z,0.43
2023-03-31T06:26:08.522Z,0.60
2023-03-31T06:28:36.427Z,0.50
2023-03-31T06:31:09.769Z,0.65
2023-03-31T06:33:36.876Z,0.80
2023-03-31T06:36:05.962Z,1.58
2023-03-31T06:38:35.605Z,0.60
2023-03-31T06:41:03.026Z,1.40
2023-03-31T06:43:30.234Z,1.10
2023-03-31T06:45:57.301Z,0.95
2023-03-31T06:48:25.596Z,1.10
2023-03-31T06:50:56.318Z,1.50
2023-03-31T06:53:23.262Z,1.48
2023-03-31T06:55:50.206Z,1.58
2023-03-31T06:58:17.264Z,2.38
2023-03-31T07:00:46.320Z,1.05
2023-03-31T07:03:13.970Z,1.00
2023-03-31T07:05:41.297Z,0.93
2023-03-31T07:08:08.403Z,1.88
2023-03-31T07:10:35.423Z,1.77
2023-03-31T07:13:04.459Z,2.10
2023-03-31T07:15:32.678Z,1.58
2023-03-31T07:18:02.925Z,1.42
2023-03-31T07:20:31.683Z,1.20
2023-03-31T07:22:58.787Z,1.13
2023-03-31T07:25:26.442Z,1.55
2023-03-31T07:27:59.991Z,1.45
2023-03-31T07:30:28.093Z,1.20
2023-03-31T07:32:55.184Z,1.70
2023-03-31T07:35:23.312Z,1.73
2023-03-31T07:37:51.569Z,1.70
2023-03-31T07:40:25.276Z,1.87
2023-03-31T07:42:53.149Z,2.85
2023-03-31T07:45:22.149Z,2.10
2023-03-31T07:47:49.625Z,2.00
2023-03-31T07:50:17.748Z,1.80
2023-03-31T07:55:14.988Z,2.13
2023-03-31T07:57:42.435Z,1.90
2023-03-31T08:00:12.782Z,1.83
2023-03-31T08:02:43.196Z,1.98
2023-03-31T08:05:12.689Z,1.15
2023-03-31T08:07:42.052Z,1.58
2023-03-31T08:12:37.411Z,1.23
2023-03-31T08:15:04.974Z,1.23
2023-03-31T08:17:32.051Z,1.30
2023-03-31T08:20:02.770Z,2.28
2023-03-31T08:22:32.198Z,1.50
2023-03-31T08:24:59.119Z,2.42
2023-03-31T08:27:26.455Z,1.55
2023-03-31T08:29:53.515Z,1.98
2023-03-31T08:32:24.645Z,1.40
2023-03-31T08:34:51.923Z,1.30
2023-03-31T08:37:19.055Z,1.52
2023-03-31T08:39:46.314Z,1.60
2023-03-31T08:42:19.988Z,1.48
2023-03-31T08:45:02.800Z,1.77
2023-03-31T08:47:32.701Z,1.13
2023-03-31T08:50:07.218Z,1.15
2023-03-31T08:52:40.097Z,1.17
2023-03-31T08:55:44.616Z,0.80
2023-03-31T08:58:44.389Z,0.70
2023-03-31T09:01:59.501Z,0.80
2023-03-31T09:04:38.823Z,1.50
2023-03-31T09:07:17.857Z,1.10
2023-03-31T09:09:52.240Z,0.88
2023-03-31T09:12:51.454Z,1.00
2023-03-31T09:15:25.567Z,1.33
2023-03-31T09:17:55.903Z,1.23
2023-03-31T09:20:33.894Z,0.82
2023-03-31T09:23:26.312Z,1.02
2023-03-31T09:25:54.057Z,0.98
2023-03-31T09:28:27.423Z,1.20
2023-03-31T09:30:55.816Z,0.90
2023-03-31T09:33:32.459Z,1.00
2023-03-31T09:36:00.694Z,1.38
2023-03-31T09:38:31.509Z,1.50
2023-03-31T09:41:01.684Z,1.33
2023-03-31T09:43:32.040Z,1.08
2023-03-31T09:46:09.349Z,0.90
2023-03-31T09:48:51.004Z,1.70
2023-03-31T09:51:27.673Z,2.63
2023-03-31T09:54:03.035Z,0.70
2023-03-31T09:56:47.108Z,1.00
2023-03-31T09:59:15.984Z,1.00
2023-03-31T10:01:45.959Z,1.30
2023-03-31T10:04:35.170Z,1.02
2023-03-31T10:07:05.597Z,1.10
2023-03-31T10:09:34.579Z,1.23
2023-03-31T10:12:16.443Z,1.05
2023-03-31T10:14:49.218Z,1.55
2023-03-31T10:17:21.254Z,0.80
2023-03-31T10:19:52.204Z,0.93
2023-03-31T10:22:22.154Z,0.80
2023-03-31T10:24:51.179Z,0.85
2023-03-31T10:27:24.727Z,0.77
2023-03-31T10:29:57.538Z,0.80
2023-03-31T10:32:33.060Z,1.10
2023-03-31T10:35:07.071Z,0.93
2023-03-31T10:37:36.955Z,0.80
2023-03-31T10:40:14.909Z,1.15
2023-03-31T10:42:46.643Z,1.25
2023-03-31T10:45:36.542Z,0.80
2023-03-31T10:48:04.972Z,1.20
2023-03-31T10:50:36.993Z,0.55
2023-03-31T10:53:12.044Z,1.15
2023-03-31T10:55:57.680Z,1.02
2023-03-31T10:58:33.640Z,1.23
2023-03-31T11:01:11.617Z,1.38
2023-03-31T11:03:44.758Z,0.43
2023-03-31T11:06:22.426Z,1.48
2023-03-31T11:09:02.026Z,0.65
2023-03-31T11:11:44.800Z,0.60
2023-03-31T11:14:31.400Z,2.38
2023-03-31T11:17:08.096Z,2.50
2023-03-31T11:20:07.120Z,1.85
2023-03-31T11:23:03.647Z,0.88
2023-03-31T11:25:50.816Z,1.02
2023-03-31T11:28:23.867Z,0.65
2023-03-31T11:31:39.024Z,1.17
2023-03-31T11:34:33.919Z,3.25
2023-03-31T11:37:23.840Z,1.25
2023-03-31T11:40:17.772Z,0.80
2023-03-31T11:43:06.730Z,1.02
2023-03-31T11:45:41.693Z,1.52
2023-03-31T11:48:22.445Z,1.13
2023-03-31T11:50:50.687Z,0.88
2023-03-31T11:53:21.732Z,0.87
2023-03-31T11:55:51.962Z,0.43
2023-03-31T11:58:28.506Z,0.80
2023-03-31T12:01:11.144Z,1.10
2023-03-31T12:03:50.181Z,0.60
2023-03-31T12:06:21.346Z,0.88
2023-03-31T12:09:25.269Z,0.55
2023-03-31T12:12:02.035Z,0.82
2023-03-31T12:14:43.989Z,0.47
2023-03-31T12:17:14.639Z,0.52
2023-03-31T12:19:50.141Z,0.75
2023-03-31T12:22:25.056Z,0.95
2023-03-31T12:24:53.521Z,0.73
2023-03-31T12:27:50.681Z,0.80
2023-03-31T12:30:37.206Z,0.50
2023-03-31T12:33:22.811Z,1.13
2023-03-31T12:36:04.689Z,0.70
2023-03-31T12:39:15.440Z,1.05
2023-03-31T12:42:07.244Z,0.95
2023-03-31T12:44:36.938Z,0.70
2023-03-31T12:47:21.600Z,0.70
2023-03-31T12:50:13.355Z,0.70
2023-03-31T12:52:56.964Z,0.57
2023-03-31T12:55:48.215Z,0.70
2023-03-31T12:58:32.444Z,0.70
2023-03-31T13:01:11.727Z,0.55
2023-03-31T13:03:47.906Z,0.88
2023-03-31T13:06:30.199Z,0.60
2023-03-31T13:09:23.568Z,0.80
2023-03-31T13:11:50.769Z,1.02
2023-03-31T13:14:43.883Z,0.60
2023-03-31T13:17:33.930Z,0.50
2023-03-31T13:20:16.888Z,0.60
2023-03-31T13:22:48.537Z,0.60
2023-03-31T13:25:30.781Z,0.50
2023-03-31T13:28:18.007Z,0.60
2023-03-31T13:30:46.533Z,0.40
2023-03-31T13:33:18.366Z,0.80
2023-03-31T13:35:54.406Z,0.65
2023-03-31T13:38:46.233Z,1.00
2023-03-31T13:41:38.569Z,0.45
2023-03-31T13:44:13.113Z,0.73
2023-03-31T13:47:11.199Z,0.50
2023-03-31T13:49:51.650Z,0.50
2023-03-31T13:52:31.425Z,0.75
2023-03-31T13:55:36.568Z,0.50
2023-03-31T13:58:34.269Z,0.75
2023-03-31T14:03:54.023Z,0.63
2023-03-31T14:07:18.381Z,0.75
2023-03-31T14:09:55.064Z,0.57
2023-03-31T14:12:31.586Z,0.70
2023-03-31T14:14:58.723Z,0.93
2023-03-31T14:17:31.397Z,0.55
2023-03-31T14:20:23.133Z,0.93
2023-03-31T14:23:20.037Z,0.47
2023-03-31T14:26:12.417Z,0.80
2023-03-31T14:29:01.441Z,0.50
2023-03-31T14:31:50.180Z,0.68
2023-03-31T14:37:00.616Z,0.43
2023-03-31T14:39:32.603Z,0.73
2023-03-31T14:42:19.996Z,0.63
2023-03-31T14:44:48.819Z,0.68
2023-03-31T14:49:44.123Z,1.05
2023-03-31T14:52:20.077Z,1.08
2023-03-31T14:54:50.195Z,0.82
2023-03-31T14:57:21.751Z,0.60
2023-03-31T14:59:53.281Z,0.90
2023-03-31T15:02:31.552Z,0.70
2023-03-31T15:04:59.014Z,1.17
2023-03-31T15:07:28.770Z,1.45
2023-03-31T15:09:56.225Z,0.90
2023-03-31T15:12:23.811Z,0.95
2023-03-31T15:14:59.144Z,1.55
2023-03-31T15:17:29.782Z,1.33
2023-03-31T15:20:01.450Z,3.10
2023-03-31T15:22:30.910Z,1.13
2023-03-31T15:24:59.085Z,1.58
2023-03-31T15:27:53.327Z,1.88
2023-03-31T15:30:24.649Z,0.95
2023-03-31T15:32:53.472Z,1.38
2023-03-31T15:35:32.625Z,1.17
2023-03-31T15:38:01.426Z,1.30
2023-03-31T15:40:41.124Z,1.52
2023-03-31T15:43:25.828Z,1.13
2023-03-31T15:45:57.824Z,0.80
2023-03-31T15:48:33.820Z,1.05
2023-03-31T15:51:22.459Z,0.85
2023-03-31T15:53:54.124Z,0.65
2023-03-31T15:56:34.987Z,0.68
2023-03-31T15:59:05.707Z,1.65
2023-03-31T16:01:39.008Z,0.73
2023-03-31T16:04:16.104Z,1.50
2023-03-31T16:06:57.112Z,1.23
2023-03-31T16:09:29.296Z,1.10
2023-03-31T16:12:02.726Z,1.02
2023-03-31T16:17:43.944Z,0.98
2023-03-31T16:20:20.017Z,3.05
2023-03-31T16:22:51.724Z,2.00
2023-03-31T16:25:25.059Z,2.00
2023-03-31T16:27:56.980Z,1.58
2023-03-31T16:30:34.441Z,1.27
2023-03-31T16:33:07.174Z,0.98
2023-03-31T16:35:40.837Z,1.58
2023-03-31T16:38:09.109Z,1.20
2023-03-31T16:40:41.574Z,0.95
2023-03-31T16:43:11.666Z,1.20
2023-03-31T16:45:39.091Z,1.48
2023-03-31T16:48:15.597Z,1.30
2023-03-31T16:50:48.632Z,1.48
2023-03-31T16:53:17.640Z,2.30
2023-03-31T16:55:44.910Z,1.60
2023-03-31T16:58:12.223Z,2.47
2023-03-31T17:00:40.873Z,3.03
2023-03-31T17:03:10.401Z,2.28
2023-03-31T17:05:42.564Z,2.63
2023-03-31T17:08:11.474Z,3.50
2023-03-31T17:10:40.023Z,3.50
2023-03-31T17:13:08.342Z,3.13
2023-03-31T17:15:36.817Z,3.58
2023-03-31T17:18:04.794Z,4.03
2023-03-31T17:20:31.972Z,4.15
2023-03-31T17:22:58.993Z,3.95
2023-03-31T17:25:26.280Z,4.80
2023-03-31T17:27:53.368Z,5.20
2023-03-31T17:30:20.774Z,5.22
2023-03-31T17:32:50.645Z,4.90
2023-03-31T17:35:21.914Z,5.07
2023-03-31T17:37:56.297Z,5.95
2023-03-31T17:40:25.208Z,8.75
2023-03-31T17:42:54.216Z,6.47
2023-03-31T17:45:21.216Z,6.53
2023-03-31T17:47:48.160Z,6.43
2023-03-31T17:50:15.154Z,6.25
2023-03-31T17:52:42.180Z,5.95
2023-03-31T17:55:09.674Z,6.38
2023-03-31T17:57:37.458Z,7.50
2023-03-31T18:00:06.300Z,6.35
2023-03-31T18:02:40.915Z,7.22
2023-03-31T18:05:09.582Z,6.57
2023-03-31T18:07:37.455Z,5.88
2023-03-31T18:10:06.061Z,6.72
2023-03-31T18:12:34.653Z,5.35
2023-03-31T18:15:03.058Z,7.07
2023-03-31T18:17:31.405Z,6.82
2023-03-31T18:19:59.539Z,6.88
2023-03-31T18:22:26.762Z,6.22
2023-03-31T18:24:53.920Z,6.88
2023-03-31T18:27:22.546Z,8.68
2023-03-31T18:29:50.863Z,7.38
2023-03-31T18:32:17.972Z,8.90
2023-03-31T18:34:45.072Z,7.55
2023-03-31T18:37:12.756Z,7.68
2023-03-31T18:39:39.775Z,8.32
2023-03-31T18:42:07.116Z,9.48
2023-03-31T18:44:36.424Z,7.18
2023-03-31T18:49:30.479Z,6.15
2023-03-31T18:51:58.953Z,8.60
2023-03-31T18:54:26.215Z,6.82
2023-03-31T18:56:53.400Z,7.03
2023-03-31T18:59:20.633Z,6.95
2023-03-31T19:01:47.702Z,6.85
2023-03-31T19:04:14.635Z,9.13
2023-03-31T19:06:41.702Z,9.48
2023-03-31T19:09:08.662Z,10.95
2023-03-31T19:11:35.682Z,20.20
2023-03-31T19:14:04.109Z,18.23
2023-03-31T19:16:31.208Z,23.20
2023-03-31T19:18:58.199Z,25.90
2023-03-31T19:21:25.437Z,25.15
2023-03-31T19:23:52.350Z,21.52
2023-03-31T19:26:19.951Z,21.17
2023-03-31T19:28:48.399Z,18.20
2023-03-31T19:31:15.726Z,17.70
2023-03-31T19:33:43.247Z,18.92
2023-03-31T19:36:10.288Z,18.08
2023-03-31T19:38:37.707Z,20.58
2023-03-31T19:41:07.822Z,16.95
2023-03-31T19:43:34.878Z,18.05
2023-03-31T19:46:01.930Z,16.95
2023-03-31T19:48:32.291Z,15.98
2023-03-31T19:51:01.112Z,13.43
2023-03-31T19:53:28.344Z,14.75
2023-03-31T19:56:00.601Z,14.10
2023-03-31T19:58:30.357Z,12.82
2023-03-31T20:00:58.246Z,12.05
2023-03-31T20:03:26.683Z,11.50
2023-03-31T20:06:12.508Z,12.57
2023-03-31T20:08:41.854Z,12.60
2023-03-31T20:13:39.526Z,11.00
2023-03-31T20:16:09.546Z,12.07
2023-03-31T20:18:37.698Z,10.55
2023-03-31T20:21:08.151Z,11.40
2023-03-31T20:23:38.278Z,11.60
2023-03-31T20:26:07.286Z,11.57
2023-03-31T20:28:35.190Z,13.32
2023-03-31T20:31:24.061Z,12.93
2023-03-31T20:33:52.338Z,11.93
2023-03-31T20:36:21.996Z,13.23
2023-03-31T20:38:51.733Z,11.70
2023-03-31T20:41:21.030Z,11.07
2023-03-31T20:46:15.621Z,11.13
2023-03-31T20:48:46.140Z,10.80
2023-03-31T20:51:16.760Z,9.70
2023-03-31T20:53:45.915Z,11.60
2023-03-31T20:56:15.685Z,10.50
2023-03-31T20:58:44.126Z,11.18
2023-03-31T21:01:12.322Z,11.23
2023-03-31T21:03:39.900Z,11.25
2023-03-31T21:06:11.165Z,11.88
2023-03-31T21:08:39.845Z,11.93
2023-03-31T21:11:06.907Z,11.30
2023-03-31T21:13:34.370Z,11.93
2023-03-31T21:16:01.978Z,10.40
2023-03-31T21:18:30.999Z,11.57
2023-03-31T21:21:02.930Z,10.98
2023-03-31T21:23:34.558Z,10.37
2023-03-31T21:26:03.580Z,9.68
2023-03-31T21:28:33.247Z,11.50
2023-03-31T21:31:06.501Z,9.25
2023-03-31T21:33:35.553Z,12.60
2023-03-31T21:36:02.562Z,15.02
2023-03-31T21:38:29.538Z,13.40
2023-03-31T21:40:57.723Z,12.80
2023-03-31T21:43:26.141Z,15.02
2023-03-31T21:45:58.265Z,16.23
2023-03-31T21:48:26.717Z,13.57
2023-03-31T21:50:54.965Z,15.00
2023-03-31T21:53:25.049Z,13.66
2023-03-31T21:55:55.438Z,13.27
2023-03-31T21:58:28.960Z,13.15
2023-03-31T22:01:04.230Z,12.68
2023-03-31T22:03:34.607Z,14.75
2023-03-31T22:06:09.408Z,13.95
2023-03-31T22:08:38.340Z,13.13
2023-03-31T22:11:07.298Z,14.30
2023-03-31T22:13:35.353Z,13.85
2023-03-31T22:16:02.763Z,11.63
2023-03-31T22:18:30.815Z,13.02
2023-03-31T22:20:58.295Z,12.93
2023-03-31T22:23:26.010Z,13.65
2023-03-31T22:25:53.029Z,11.05
2023-03-31T22:28:19.957Z,11.73
2023-03-31T22:30:47.416Z,12.70
2023-03-31T22:33:14.322Z,14.68
2023-03-31T22:35:41.501Z,16.38
2023-03-31T22:38:08.876Z,14.45
2023-03-31T22:40:36.565Z,15.20
2023-03-31T22:43:03.452Z,18.02
2023-03-31T22:45:30.838Z,17.88
2023-03-31T22:47:58.193Z,15.52
2023-03-31T22:50:25.228Z,15.57
2023-03-31T22:52:52.341Z,18.37
2023-03-31T22:55:19.523Z,17.80
2023-03-31T22:57:46.960Z,21.60
2023-03-31T23:00:14.477Z,21.47
2023-03-31T23:02:41.653Z,21.35
2023-03-31T23:05:09.328Z,23.90
2023-03-31T23:07:36.696Z,21.33
2023-03-31T23:10:03.928Z,21.25
2023-03-31T23:12:31.091Z,21.92
2023-03-31T23:14:57.985Z,19.27
2023-03-31T23:17:24.957Z,21.35
2023-03-31T23:19:51.900Z,19.95
2023-03-31T23:22:19.293Z,18.23
2023-03-31T23:24:48.425Z,18.92
2023-03-31T23:27:15.416Z,18.75
2023-03-31T23:29:42.449Z,18.35
2023-03-31T23:32:09.973Z,15.52
2023-03-31T23:34:41.831Z,15.38
2023-03-31T23:37:10.300Z,13.27
2023-03-31T23:39:39.099Z,12.70
2023-03-31T23:42:10.289Z,14.10
2023-03-31T23:44:40.253Z,14.68
2023-03-31T23:47:07.286Z,15.25
2023-03-31T23:49:34.249Z,15.70
2023-03-31T23:52:01.556Z,13.48
2023-03-31T23:54:29.175Z,12.85
2023-03-31T23:56:56.468Z,15.65
2023-03-31T23:59:23.524Z,14.30
